Time;durP1;ratioP1;P1;durP2;ratioP2;P2;SDS_P1;SDS_P2;PMS_P1;PMS_P2;Temp;Humidity;BMP_temperature;BMP_pressure;BME280_temperature;BME280_humidity;BME280_pressure;Samples;Min_cycle;Max_cycle;Signal;HPM_P1;HPM_P2
2021/10/08 00:01:30;;;;;;;;;7.67;7.00;;;;;;;;5059014;27;52306;-58
2021/10/08 00:03:56;;;;;;;;;7.67;6.00;;;;;;;;5075538;27;53308;-58
2021/10/08 00:06:21;;;;;;;;;9.00;8.33;;;;;;;;5076590;27;51303;-56
2021/10/08 00:08:47;;;;;;;;;5.67;5.00;;;;;;;;5074580;27;53040;-56
2021/10/08 00:11:12;;;;;;;;;8.00;5.67;;;;;;;;5074086;27;51698;-58
2021/10/08 00:13:38;;;;;;;;;7.67;7.67;;;;;;;;5075538;27;53309;-58
2021/10/08 00:16:05;;;;;;;;;5.67;5.67;;;;;;;;5076384;27;51411;-58
2021/10/08 00:18:30;;;;;;;;;7.75;6.75;;;;;;;;5072979;27;53367;-58
2021/10/08 00:20:55;;;;;;;;;7.00;7.00;;;;;;;;5074691;27;51866;-58
2021/10/08 00:23:20;;;;;;;;;7.25;7.00;;;;;;;;5074265;27;51204;-58
2021/10/08 00:25:46;;;;;;;;;8.00;7.50;;;;;;;;5042769;27;51279;-58
2021/10/08 00:28:11;;;;;;;;;6.50;6.50;;;;;;;;5075685;27;53157;-58
2021/10/08 00:30:36;;;;;;;;;5.00;5.00;;;;;;;;5074188;27;53539;-58
2021/10/08 00:33:02;;;;;;;;;6.00;5.00;;;;;;;;5074973;27;51129;-58
2021/10/08 00:35:27;;;;;;;;;6.75;6.00;;;;;;;;5073013;27;51437;-57
2021/10/08 00:37:53;;;;;;;;;7.00;6.75;;;;;;;;5076209;27;51361;-58
2021/10/08 00:40:18;;;;;;;;;7.00;7.00;;;;;;;;5078371;27;53368;-57
2021/10/08 00:42:46;;;;;;;;;9.00;8.50;;;;;;;;5077459;27;53321;-57
2021/10/08 00:45:11;;;;;;;;;8.25;7.75;;;;;;;;5074773;27;51228;-58
2021/10/08 00:47:36;;;;;;;;;10.50;10.50;;;;;;;;5070784;27;51295;-57
2021/10/08 00:50:04;;;;;;;;;10.25;10.25;;;;;;;;5076675;27;51832;-57
2021/10/08 00:52:29;;;;;;;;;10.00;9.00;;;;;;;;5077482;27;51183;-57
2021/10/08 00:54:54;;;;;;;;;12.50;11.25;;;;;;;;5075120;27;51051;-57
2021/10/08 00:57:19;;;;;;;;;15.25;13.75;;;;;;;;5074508;27;51443;-57
2021/10/08 00:59:45;;;;;;;;;13.00;12.50;;;;;;;;5077921;27;51976;-57
2021/10/08 01:02:11;;;;;;;;;16.50;15.75;;;;;;;;5077526;27;51276;-57
2021/10/08 01:04:36;;;;;;;;;15.50;15.50;;;;;;;;5075747;27;51125;-58
2021/10/08 01:07:01;;;;;;;;;18.75;16.00;;;;;;;;5066469;27;51174;-58
2021/10/08 01:09:27;;;;;;;;;15.75;15.00;;;;;;;;5054774;27;51427;-58
2021/10/08 01:11:52;;;;;;;;;14.00;14.00;;;;;;;;5056704;27;53665;-57
2021/10/08 01:14:17;;;;;;;;;14.00;13.00;;;;;;;;5072486;27;51163;-58
2021/10/08 01:16:42;;;;;;;;;14.25;12.25;;;;;;;;5075136;27;53434;-58
2021/10/08 01:19:09;;;;;;;;;12.00;12.00;;;;;;;;5075878;27;51469;-58
2021/10/08 01:21:34;;;;;;;;;9.50;8.25;;;;;;;;5068568;27;51372;-58
2021/10/08 01:24:00;;;;;;;;;13.00;13.00;;;;;;;;5077636;27;51207;-58
2021/10/08 01:26:25;;;;;;;;;11.25;10.50;;;;;;;;5075270;27;51223;-58
2021/10/08 01:28:50;;;;;;;;;12.00;11.50;;;;;;;;5075589;27;53310;-58
2021/10/08 01:31:15;;;;;;;;;15.75;14.00;;;;;;;;5077303;27;51337;-58
2021/10/08 01:33:40;;;;;;;;;13.00;13.00;;;;;;;;5057740;27;51119;-58
2021/10/08 01:36:06;;;;;;;;;13.75;13.75;;;;;;;;5076572;27;51450;-58
2021/10/08 01:38:31;;;;;;;;;11.50;11.50;;;;;;;;5075529;27;51255;-57
2021/10/08 01:40:56;;;;;;;;;12.00;10.75;;;;;;;;5077686;27;53338;-58
2021/10/08 01:43:21;;;;;;;;;12.25;11.50;;;;;;;;5073636;27;53411;-58
2021/10/08 01:45:47;;;;;;;;;12.50;11.00;;;;;;;;5074863;27;51100;-57
2021/10/08 01:48:12;;;;;;;;;11.75;10.00;;;;;;;;5068952;27;51921;-57
2021/10/08 01:50:37;;;;;;;;;13.50;13.25;;;;;;;;5077021;27;51123;-58
2021/10/08 01:53:03;;;;;;;;;13.00;12.25;;;;;;;;5072780;27;51300;-58
2021/10/08 01:55:28;;;;;;;;;15.25;14.50;;;;;;;;5066674;27;51102;-57
2021/10/08 01:57:53;;;;;;;;;13.25;12.25;;;;;;;;5078333;27;51116;-58
2021/10/08 02:00:19;;;;;;;;;16.25;15.50;;;;;;;;5076815;27;51370;-58
2021/10/08 02:02:44;;;;;;;;;13.00;11.25;;;;;;;;5074094;27;51382;-58
2021/10/08 02:05:09;;;;;;;;;14.00;13.00;;;;;;;;5074704;27;51429;-59
2021/10/08 02:07:35;;;;;;;;;13.25;13.25;;;;;;;;5075386;27;53226;-58
2021/10/08 02:10:00;;;;;;;;;14.00;13.00;;;;;;;;5075794;27;51414;-57
2021/10/08 02:12:25;;;;;;;;;11.75;11.00;;;;;;;;5072226;27;51167;-58
2021/10/08 02:14:50;;;;;;;;;14.75;14.00;;;;;;;;5071972;27;51365;-58
2021/10/08 02:17:16;;;;;;;;;11.00;11.00;;;;;;;;5073488;27;51208;-58
2021/10/08 02:19:41;;;;;;;;;12.50;12.50;;;;;;;;5073419;27;51950;-58
2021/10/08 02:22:07;;;;;;;;;24.50;21.25;;;;;;;;5074855;27;51229;-58
2021/10/08 02:24:32;;;;;;;;;25.00;22.75;;;;;;;;5073745;27;51152;-58
2021/10/08 02:26:58;;;;;;;;;28.25;27.25;;;;;;;;5075312;27;53473;-58
2021/10/08 02:29:23;;;;;;;;;25.00;22.75;;;;;;;;5071521;27;53364;-58
2021/10/08 02:31:49;;;;;;;;;20.50;20.00;;;;;;;;5075342;27;51280;-57
2021/10/08 02:34:14;;;;;;;;;20.00;18.75;;;;;;;;5072700;27;51109;-57
2021/10/08 02:36:39;;;;;;;;;19.50;19.00;;;;;;;;5073136;27;51759;-58
2021/10/08 02:39:04;;;;;;;;;18.00;17.25;;;;;;;;5075504;27;53116;-57
2021/10/08 02:41:30;;;;;;;;;16.50;15.50;;;;;;;;5076041;27;51284;-58
2021/10/08 02:43:55;;;;;;;;;16.75;13.75;;;;;;;;5066815;27;51454;-58
2021/10/08 02:46:20;;;;;;;;;13.50;13.00;;;;;;;;5075592;27;52241;-58
2021/10/08 02:48:45;;;;;;;;;18.25;16.00;;;;;;;;5074972;27;53066;-57
2021/10/08 02:51:11;;;;;;;;;11.00;11.00;;;;;;;;5074235;27;51074;-57
2021/10/08 02:53:36;;;;;;;;;13.00;13.00;;;;;;;;5073984;27;51606;-57
2021/10/08 02:56:03;;;;;;;;;13.75;12.75;;;;;;;;5073467;27;52037;-57
2021/10/08 02:58:28;;;;;;;;;14.50;13.00;;;;;;;;5075387;27;51402;-58
2021/10/08 03:00:53;;;;;;;;;13.75;13.75;;;;;;;;5075268;27;51427;-58
2021/10/08 03:03:19;;;;;;;;;10.75;10.75;;;;;;;;5073840;27;51207;-58
2021/10/08 03:05:44;;;;;;;;;12.75;12.25;;;;;;;;5073011;27;52089;-57
2021/10/08 03:08:09;;;;;;;;;13.00;12.75;;;;;;;;5074366;27;51189;-58
2021/10/08 03:10:35;;;;;;;;;17.50;14.75;;;;;;;;5073391;27;51259;-58
2021/10/08 03:13:01;;;;;;;;;12.75;11.75;;;;;;;;5074067;27;51233;-58
2021/10/08 03:15:27;;;;;;;;;13.75;13.25;;;;;;;;5075108;27;51368;-57
2021/10/08 03:17:52;;;;;;;;;13.00;12.00;;;;;;;;5072894;27;51358;-57
2021/10/08 03:20:17;;;;;;;;;13.25;12.00;;;;;;;;5074848;27;51228;-57
2021/10/08 03:22:42;;;;;;;;;15.50;14.50;;;;;;;;5070800;27;53096;-58
2021/10/08 03:25:08;;;;;;;;;13.75;13.75;;;;;;;;5067763;27;54112;-57
2021/10/08 03:27:36;;;;;;;;;14.25;12.75;;;;;;;;5078522;27;51350;-57
2021/10/08 03:30:03;;;;;;;;;15.75;13.50;;;;;;;;5076183;27;51135;-57
2021/10/08 03:32:28;;;;;;;;;13.50;12.50;;;;;;;;5077929;27;51109;-57
2021/10/08 03:34:53;;;;;;;;;15.75;13.00;;;;;;;;5078165;27;53283;-57
2021/10/08 03:37:22;;;;;;;;;18.00;17.00;;;;;;;;5077150;27;51233;-57
2021/10/08 03:39:48;;;;;;;;;15.00;13.50;;;;;;;;5078238;27;51233;-57
2021/10/08 03:42:17;;;;;;;;;15.75;14.50;;;;;;;;5074529;27;51139;-57
2021/10/08 03:44:45;;;;;;;;;16.75;16.00;;;;;;;;5078208;27;52684;-57
2021/10/08 03:47:15;;;;;;;;;14.50;14.50;;;;;;;;5076408;27;51169;-57
2021/10/08 03:49:41;;;;;;;;;16.75;16.00;;;;;;;;5074281;27;51309;-57
2021/10/08 03:52:06;;;;;;;;;19.00;17.25;;;;;;;;5073855;27;51070;-57
2021/10/08 03:54:31;;;;;;;;;14.50;12.75;;;;;;;;5072226;27;54310;-57
2021/10/08 03:56:59;;;;;;;;;14.25;14.25;;;;;;;;5076540;27;53310;-57
2021/10/08 03:59:25;;;;;;;;;16.25;16.00;;;;;;;;5078318;27;51246;-57
2021/10/08 04:01:50;;;;;;;;;13.50;13.50;;;;;;;;5078679;27;51472;-57
2021/10/08 04:04:15;;;;;;;;;16.75;16.00;;;;;;;;5071966;27;51166;-57
2021/10/08 04:06:41;;;;;;;;;16.25;15.75;;;;;;;;5077138;27;53307;-57
2021/10/08 04:09:06;;;;;;;;;17.50;15.50;;;;;;;;5075142;27;51188;-57
2021/10/08 04:11:32;;;;;;;;;14.50;13.75;;;;;;;;5077919;27;51405;-57
2021/10/08 04:13:57;;;;;;;;;17.25;17.00;;;;;;;;5068556;27;52025;-56
2021/10/08 04:16:23;;;;;;;;;17.25;17.00;;;;;;;;5077359;27;53141;-57
2021/10/08 04:18:48;;;;;;;;;19.00;18.75;;;;;;;;5075108;27;51194;-57
2021/10/08 04:21:13;;;;;;;;;16.75;14.25;;;;;;;;5075364;27;51169;-57
2021/10/08 04:23:39;;;;;;;;;17.75;16.25;;;;;;;;5074708;27;51208;-57
2021/10/08 04:26:04;;;;;;;;;15.00;14.50;;;;;;;;5079174;27;51328;-57
2021/10/08 04:28:29;;;;;;;;;17.50;16.25;;;;;;;;5078738;27;51326;-57
2021/10/08 04:30:54;;;;;;;;;19.00;19.00;;;;;;;;5078780;27;51630;-57
2021/10/08 04:33:21;;;;;;;;;19.75;18.00;;;;;;;;5072843;27;52573;-57
2021/10/08 04:35:46;;;;;;;;;18.75;18.00;;;;;;;;5077974;27;51208;-57
2021/10/08 04:38:12;;;;;;;;;19.25;18.75;;;;;;;;5073885;27;53290;-57
2021/10/08 04:40:38;;;;;;;;;21.50;20.75;;;;;;;;5080104;27;52783;-57
2021/10/08 04:43:03;;;;;;;;;18.00;17.00;;;;;;;;5072358;27;51885;-58
2021/10/08 04:45:28;;;;;;;;;20.25;17.75;;;;;;;;5068812;27;51358;-57
2021/10/08 04:47:54;;;;;;;;;19.25;17.75;;;;;;;;5076198;27;51136;-57
2021/10/08 04:50:19;;;;;;;;;20.75;19.25;;;;;;;;5079013;27;51725;-57
2021/10/08 04:52:44;;;;;;;;;18.00;16.00;;;;;;;;5073979;27;51260;-57
2021/10/08 04:55:10;;;;;;;;;24.25;23.25;;;;;;;;5076638;27;51399;-56
2021/10/08 04:57:35;;;;;;;;;19.75;18.50;;;;;;;;5078581;27;51586;-56
2021/10/08 05:00:00;;;;;;;;;23.75;20.25;;;;;;;;5075931;27;51170;-58
2021/10/08 05:02:25;;;;;;;;;17.25;16.50;;;;;;;;5072998;27;53426;-57
2021/10/08 05:04:50;;;;;;;;;20.75;20.75;;;;;;;;5073763;27;51379;-56
2021/10/08 05:07:16;;;;;;;;;24.75;22.25;;;;;;;;5078951;27;51277;-58
2021/10/08 05:09:41;;;;;;;;;25.25;23.50;;;;;;;;5074469;27;51079;-56
2021/10/08 05:12:06;;;;;;;;;22.75;22.75;;;;;;;;5069937;27;51205;-57
2021/10/08 05:14:31;;;;;;;;;23.00;23.00;;;;;;;;5077534;27;51154;-58
2021/10/08 05:16:57;;;;;;;;;25.50;22.25;;;;;;;;5076271;27;51277;-57
2021/10/08 05:19:24;;;;;;;;;21.75;21.75;;;;;;;;5076860;27;51315;-57
2021/10/08 05:21:50;;;;;;;;;25.50;23.75;;;;;;;;5079032;27;52004;-57
2021/10/08 05:24:15;;;;;;;;;22.25;21.50;;;;;;;;5076126;27;51262;-57
2021/10/08 05:26:41;;;;;;;;;23.25;22.75;;;;;;;;5074159;27;51124;-57
2021/10/08 05:29:06;;;;;;;;;22.25;21.50;;;;;;;;5077655;27;51442;-57
2021/10/08 05:31:33;;;;;;;;;24.00;23.25;;;;;;;;5076539;27;51799;-57
2021/10/08 05:33:58;;;;;;;;;23.75;21.00;;;;;;;;5076691;27;51127;-58
2021/10/08 05:36:24;;;;;;;;;24.50;23.50;;;;;;;;5076275;27;51101;-61
2021/10/08 05:38:49;;;;;;;;;25.75;24.00;;;;;;;;5071095;27;51489;-60
2021/10/08 05:41:14;;;;;;;;;22.50;20.75;;;;;;;;5071194;27;52198;-58
2021/10/08 05:43:39;;;;;;;;;29.50;29.00;;;;;;;;5073622;27;51192;-58
2021/10/08 05:46:04;;;;;;;;;23.50;22.50;;;;;;;;5054474;27;51139;-59
2021/10/08 05:48:30;;;;;;;;;23.75;23.00;;;;;;;;5074114;27;51491;-57
2021/10/08 05:50:55;;;;;;;;;22.50;22.00;;;;;;;;5051116;27;54239;-58
2021/10/08 05:53:20;;;;;;;;;25.75;24.25;;;;;;;;5074174;27;51120;-57
2021/10/08 05:55:45;;;;;;;;;30.00;27.25;;;;;;;;5074510;27;51175;-59
2021/10/08 05:58:11;;;;;;;;;28.25;26.50;;;;;;;;5074656;27;51422;-58
2021/10/08 06:00:40;;;;;;;;;28.75;26.25;;;;;;;;5071745;27;51146;-57
2021/10/08 06:03:05;;;;;;;;;30.25;25.50;;;;;;;;5074383;27;53350;-58
2021/10/08 06:05:38;;;;;;;;;27.75;25.25;;;;;;;;5075078;27;51174;-58
2021/10/08 06:08:03;;;;;;;;;25.00;24.00;;;;;;;;5075422;27;53144;-56
2021/10/08 06:10:29;;;;;;;;;25.25;24.25;;;;;;;;5074036;27;52945;-57
2021/10/08 06:12:54;;;;;;;;;23.75;23.75;;;;;;;;5074808;27;51319;-57
2021/10/08 06:15:19;;;;;;;;;30.50;27.00;;;;;;;;5077386;27;53207;-57
2021/10/08 06:17:45;;;;;;;;;23.75;23.75;;;;;;;;5077446;27;51436;-57
2021/10/08 06:20:10;;;;;;;;;26.75;24.25;;;;;;;;5069234;27;51747;-57
2021/10/08 06:22:36;;;;;;;;;26.00;22.75;;;;;;;;5074959;27;51361;-57
2021/10/08 06:25:03;;;;;;;;;30.75;29.00;;;;;;;;5072851;27;51478;-58
2021/10/08 06:27:29;;;;;;;;;25.00;24.00;;;;;;;;5074258;27;51327;-58
2021/10/08 06:29:55;;;;;;;;;27.75;26.25;;;;;;;;5054519;27;52003;-58
2021/10/08 06:32:20;;;;;;;;;25.75;23.25;;;;;;;;5076465;27;51180;-56
2021/10/08 06:34:45;;;;;;;;;29.50;26.25;;;;;;;;5074764;27;51119;-56
2021/10/08 06:37:10;;;;;;;;;28.50;27.25;;;;;;;;5073529;27;51178;-57
2021/10/08 06:39:36;;;;;;;;;26.50;26.00;;;;;;;;5075238;27;51611;-57
2021/10/08 06:42:01;;;;;;;;;29.75;25.75;;;;;;;;5073723;27;53010;-58
2021/10/08 06:44:26;;;;;;;;;29.25;27.50;;;;;;;;5070935;27;51670;-57
2021/10/08 06:46:51;;;;;;;;;28.75;26.50;;;;;;;;5057174;27;51353;-57
2021/10/08 06:49:17;;;;;;;;;26.25;26.25;;;;;;;;5075894;27;51434;-57
2021/10/08 06:51:42;;;;;;;;;24.75;24.50;;;;;;;;5076590;27;51138;-58
2021/10/08 06:54:07;;;;;;;;;25.50;24.50;;;;;;;;5072809;27;51524;-58
2021/10/08 06:56:32;;;;;;;;;26.25;24.50;;;;;;;;5075426;27;51179;-57
2021/10/08 06:58:58;;;;;;;;;31.75;27.50;;;;;;;;5073663;27;53083;-59
2021/10/08 07:01:23;;;;;;;;;28.75;27.50;;;;;;;;5070436;27;51163;-57
2021/10/08 07:03:48;;;;;;;;;32.00;28.75;;;;;;;;5071220;27;51332;-57
2021/10/08 07:06:13;;;;;;;;;31.50;30.25;;;;;;;;5073024;27;51414;-56
2021/10/08 07:08:39;;;;;;;;;28.00;27.00;;;;;;;;5071327;27;51883;-57
2021/10/08 07:11:04;;;;;;;;;35.25;32.75;;;;;;;;5075884;27;53547;-57
2021/10/08 07:13:29;;;;;;;;;37.50;31.50;;;;;;;;5071863;27;51334;-57
2021/10/08 07:15:56;;;;;;;;;27.75;26.75;;;;;;;;5073179;27;53091;-57
2021/10/08 07:18:24;;;;;;;;;26.25;25.75;;;;;;;;5073007;27;51225;-57
2021/10/08 07:20:50;;;;;;;;;27.00;24.50;;;;;;;;5071980;27;51160;-58
2021/10/08 07:23:16;;;;;;;;;30.25;27.00;;;;;;;;5072125;27;51462;-58
2021/10/08 07:25:41;;;;;;;;;31.50;27.50;;;;;;;;5073040;27;53410;-58
2021/10/08 07:28:06;;;;;;;;;28.50;26.50;;;;;;;;5050987;27;52495;-58
2021/10/08 07:30:32;;;;;;;;;27.75;27.75;;;;;;;;5072381;27;51233;-60
2021/10/08 07:32:57;;;;;;;;;28.75;26.00;;;;;;;;5062963;27;51583;-59
2021/10/08 07:35:22;;;;;;;;;28.00;27.00;;;;;;;;5054996;27;51430;-59
2021/10/08 07:37:47;;;;;;;;;23.75;23.25;;;;;;;;5073529;27;51781;-59
2021/10/08 07:40:13;;;;;;;;;25.25;24.75;;;;;;;;5073271;27;51363;-59
2021/10/08 07:42:38;;;;;;;;;25.75;25.50;;;;;;;;5075224;27;51239;-58
2021/10/08 07:45:05;;;;;;;;;25.00;23.50;;;;;;;;5073328;27;51238;-60
2021/10/08 07:47:30;;;;;;;;;28.50;28.25;;;;;;;;5071287;27;52215;-59
2021/10/08 07:49:56;;;;;;;;;31.50;29.50;;;;;;;;5072377;27;51166;-59
2021/10/08 07:52:21;;;;;;;;;26.00;25.75;;;;;;;;5071623;27;51291;-60
2021/10/08 07:54:46;;;;;;;;;26.50;24.00;;;;;;;;5073620;27;51450;-60
2021/10/08 07:57:12;;;;;;;;;23.50;23.50;;;;;;;;5068331;27;53135;-59
2021/10/08 07:59:37;;;;;;;;;28.50;27.00;;;;;;;;5070622;27;53055;-59
2021/10/08 08:02:03;;;;;;;;;23.25;22.25;;;;;;;;5073510;27;53065;-60
2021/10/08 08:04:28;;;;;;;;;25.50;25.50;;;;;;;;5073304;27;51464;-60
2021/10/08 08:06:53;;;;;;;;;25.50;25.00;;;;;;;;5072117;27;52204;-60
2021/10/08 08:09:18;;;;;;;;;35.75;32.50;;;;;;;;5055796;27;51123;-60
2021/10/08 08:11:44;;;;;;;;;24.50;23.00;;;;;;;;5070571;27;51156;-60
2021/10/08 08:14:09;;;;;;;;;27.00;25.50;;;;;;;;5058836;27;51409;-60
2021/10/08 08:16:34;;;;;;;;;28.25;28.00;;;;;;;;5077576;27;52896;-60
2021/10/08 08:19:00;;;;;;;;;23.75;23.75;;;;;;;;5071529;27;51349;-60
2021/10/08 08:21:25;;;;;;;;;27.50;26.25;;;;;;;;5076578;27;51346;-59
2021/10/08 08:23:50;;;;;;;;;28.00;27.00;;;;;;;;5075730;27;51128;-61
2021/10/08 08:26:15;;;;;;;;;21.75;21.50;;;;;;;;5077200;27;53448;-59
2021/10/08 08:28:41;;;;;;;;;22.33;22.33;;;;;;;;5076252;27;53389;-60
2021/10/08 08:31:07;;;;;;;;;29.25;29.00;;;;;;;;5073672;27;53538;-59
2021/10/08 08:33:34;;;;;;;;;25.50;24.75;;;;;;;;5072455;27;51277;-60
2021/10/08 08:35:59;;;;;;;;;23.00;23.00;;;;;;;;5077389;27;51732;-59
2021/10/08 08:38:24;;;;;;;;;22.67;22.33;;;;;;;;5077654;27;51172;-58
2021/10/08 08:40:49;;;;;;;;;19.33;19.33;;;;;;;;5078836;27;51157;-60
2021/10/08 08:43:15;;;;;;;;;21.33;21.33;;;;;;;;5075736;27;52625;-60
2021/10/08 08:45:40;;;;;;;;;17.33;17.33;;;;;;;;5077971;27;53179;-60
2021/10/08 08:48:06;;;;;;;;;21.33;20.00;;;;;;;;5065459;27;51296;-58
2021/10/08 08:50:33;;;;;;;;;15.33;15.33;;;;;;;;5073349;27;51437;-59
2021/10/08 08:52:58;;;;;;;;;20.33;18.67;;;;;;;;5073330;27;51339;-59
2021/10/08 08:55:23;;;;;;;;;18.00;17.33;;;;;;;;5073157;27;51249;-58
2021/10/08 08:57:49;;;;;;;;;18.25;18.25;;;;;;;;5066014;27;51206;-59
2021/10/08 09:00:19;;;;;;;;;19.67;19.33;;;;;;;;5057035;27;51194;-58
2021/10/08 09:02:51;;;;;;;;;21.00;20.00;;;;;;;;5060132;27;52996;-59
2021/10/08 09:05:17;;;;;;;;;22.67;21.00;;;;;;;;5058186;28;51167;-59
2021/10/08 09:07:43;;;;;;;;;21.00;20.25;;;;;;;;5058640;27;51342;-59
2021/10/08 09:10:12;;;;;;;;;20.00;20.00;;;;;;;;5058136;28;51253;-63
2021/10/08 09:12:39;;;;;;;;;17.50;17.50;;;;;;;;5040106;28;53023;-58
2021/10/08 09:15:05;;;;;;;;;14.67;14.67;;;;;;;;5061731;27;53081;-60
2021/10/08 09:17:30;;;;;;;;;16.33;16.00;;;;;;;;5058626;27;51334;-59
2021/10/08 09:19:57;;;;;;;;;19.00;18.00;;;;;;;;5076398;27;51560;-59
2021/10/08 09:22:39;;;;;;;;;21.00;20.00;;;;;;;;5074632;27;52294;-58
2021/10/08 09:25:12;;;;;;;;;22.50;20.00;;;;;;;;5072976;27;53228;-58
2021/10/08 09:27:38;;;;;;;;;22.25;21.75;;;;;;;;5072785;27;51458;-58
2021/10/08 09:30:03;;;;;;;;;17.67;17.33;;;;;;;;5074592;27;51312;-58
2021/10/08 09:32:38;;;;;;;;;22.00;20.33;;;;;;;;5071848;27;51335;-59
2021/10/08 09:35:05;;;;;;;;;21.00;18.00;;;;;;;;5071450;27;51674;-58
2021/10/08 09:37:31;;;;;;;;;12.00;12.00;;;;;;;;5071517;27;53172;-60
2021/10/08 09:39:56;;;;;;;;;16.00;16.00;;;;;;;;5074759;27;53074;-61
2021/10/08 09:42:23;;;;;;;;;26.00;24.50;;;;;;;;5074724;27;51232;-59
2021/10/08 09:44:50;;;;;;;;;17.00;16.00;;;;;;;;5075458;27;53063;-58
2021/10/08 09:47:20;;;;;;;;;15.50;15.50;;;;;;;;5074684;27;51161;-59
2021/10/08 09:49:46;;;;;;;;;15.00;14.00;;;;;;;;5072842;27;51238;-58
2021/10/08 09:52:28;;;;;;;;;13.67;12.67;;;;;;;;5075281;27;51375;-59
2021/10/08 09:54:55;;;;;;;;;13.00;12.33;;;;;;;;5076735;27;51913;-58
2021/10/08 09:57:21;;;;;;;;;12.33;11.00;;;;;;;;5075065;27;51402;-59
2021/10/08 09:59:48;;;;;;;;;9.67;8.33;;;;;;;;5075325;27;51119;-58
2021/10/08 10:02:13;;;;;;;;;9.00;9.00;;;;;;;;5070239;27;51367;-58
2021/10/08 10:04:46;;;;;;;;;8.33;7.67;;;;;;;;5070791;27;51866;-58
2021/10/08 10:07:13;;;;;;;;;9.67;9.67;;;;;;;;5074075;27;51201;-60
2021/10/08 10:09:38;;;;;;;;;9.33;9.33;;;;;;;;5073805;27;51258;-59
2021/10/08 10:12:03;;;;;;;;;7.67;7.67;;;;;;;;5074270;27;51244;-58
2021/10/08 10:14:28;;;;;;;;;11.00;11.00;;;;;;;;5072443;27;51855;-59
2021/10/08 10:16:54;;;;;;;;;8.00;7.33;;;;;;;;5075103;27;51193;-58
2021/10/08 10:19:20;;;;;;;;;6.67;6.67;;;;;;;;5072521;27;51288;-60
2021/10/08 10:21:45;;;;;;;;;6.33;6.00;;;;;;;;5075430;27;51052;-58
2021/10/08 10:24:11;;;;;;;;;6.00;5.33;;;;;;;;5076077;27;51336;-60
2021/10/08 10:26:37;;;;;;;;;7.00;7.00;;;;;;;;5056684;27;51390;-59
2021/10/08 10:29:03;;;;;;;;;5.00;5.00;;;;;;;;5075245;27;51446;-58
2021/10/08 10:31:30;;;;;;;;;6.33;6.33;;;;;;;;5074515;27;51141;-58
2021/10/08 10:33:57;;;;;;;;;6.67;6.67;;;;;;;;5077041;27;52380;-60
2021/10/08 10:36:26;;;;;;;;;7.33;7.33;;;;;;;;5068224;27;51138;-59
2021/10/08 10:38:52;;;;;;;;;6.00;6.00;;;;;;;;5072811;27;51501;-59
2021/10/08 10:41:17;;;;;;;;;7.33;6.67;;;;;;;;5071807;27;51468;-59
2021/10/08 10:43:45;;;;;;;;;7.33;7.00;;;;;;;;5071750;27;54133;-59
2021/10/08 10:51:55;;;;;;;;;7.33;7.33;;;;;;;;5071971;27;53289;-59
2021/10/08 10:54:49;;;;;;;;;7.00;6.00;;;;;;;;5074671;27;51951;-59
2021/10/08 10:57:21;;;;;;;;;6.00;6.00;;;;;;;;5073489;27;51156;-58
2021/10/08 10:59:47;;;;;;;;;6.00;6.00;;;;;;;;5064891;27;51487;-59
2021/10/08 11:02:15;;;;;;;;;6.00;5.33;;;;;;;;5073571;27;51450;-59
2021/10/08 11:04:44;;;;;;;;;6.67;6.00;;;;;;;;5071579;27;51380;-62
2021/10/08 11:07:17;;;;;;;;;6.33;6.33;;;;;;;;5073603;27;51227;-61
2021/10/08 11:09:43;;;;;;;;;6.00;6.00;;;;;;;;5072205;27;51338;-60
2021/10/08 11:12:27;;;;;;;;;6.33;6.33;;;;;;;;5072836;27;51316;-60
2021/10/08 11:15:31;;;;;;;;;10.00;10.00;;;;;;;;5073079;27;51153;-60
2021/10/08 11:17:57;;;;;;;;;8.00;7.00;;;;;;;;4964219;28;51317;-60
2021/10/08 11:20:26;;;;;;;;;6.00;6.00;;;;;;;;4963758;28;51144;-60
2021/10/08 11:22:52;;;;;;;;;8.33;8.33;;;;;;;;5016426;27;51181;-60
2021/10/08 11:25:17;;;;;;;;;9.33;8.33;;;;;;;;5072938;27;52745;-60
2021/10/08 11:27:45;;;;;;;;;7.33;7.00;;;;;;;;5074231;27;51240;-59
2021/10/08 11:30:11;;;;;;;;;5.33;5.33;;;;;;;;5075110;27;51290;-60
2021/10/08 11:32:36;;;;;;;;;7.33;7.33;;;;;;;;5048553;27;53403;-61
2021/10/08 11:35:02;;;;;;;;;7.00;7.00;;;;;;;;5071658;27;52122;-59
2021/10/08 11:37:28;;;;;;;;;6.33;6.33;;;;;;;;5075357;27;51180;-59
2021/10/08 11:39:54;;;;;;;;;8.67;8.67;;;;;;;;5070974;27;53136;-59
2021/10/08 11:42:21;;;;;;;;;7.00;6.67;;;;;;;;5072420;27;51389;-60
2021/10/08 11:45:01;;;;;;;;;5.00;5.00;;;;;;;;5073711;27;51805;-60
2021/10/08 11:52:54;;;;;;;;;7.33;7.33;;;;;;;;5062415;27;53392;-60
2021/10/08 11:55:22;;;;;;;;;12.00;12.00;;;;;;;;5078134;27;51222;-60
2021/10/08 11:57:53;;;;;;;;;8.67;8.00;;;;;;;;5075769;27;51194;-59
2021/10/08 12:00:19;;;;;;;;;8.00;7.33;;;;;;;;5076375;27;51271;-60
2021/10/08 12:03:18;;;;;;;;;8.00;7.67;;;;;;;;5077661;27;51200;-60
2021/10/08 12:05:48;;;;;;;;;7.67;6.67;;;;;;;;5021948;27;51259;-60
2021/10/08 12:08:16;;;;;;;;;9.33;9.00;;;;;;;;5072686;27;51183;-61
2021/10/08 12:10:58;;;;;;;;;7.00;6.00;;;;;;;;5079799;27;51311;-60
2021/10/08 12:13:40;;;;;;;;;8.33;7.67;;;;;;;;5051814;27;51222;-59
2021/10/08 12:16:07;;;;;;;;;7.67;7.67;;;;;;;;5076749;27;51193;-61
2021/10/08 12:18:32;;;;;;;;;7.67;7.67;;;;;;;;5076958;27;51201;-60
2021/10/08 12:21:26;;;;;;;;;6.67;6.67;;;;;;;;5077346;27;51333;-60
2021/10/08 12:23:54;;;;;;;;;6.00;6.00;;;;;;;;5053470;27;51225;-62
2021/10/08 12:26:20;;;;;;;;;6.00;6.00;;;;;;;;5077976;27;53254;-60
2021/10/08 12:28:48;;;;;;;;;7.00;7.00;;;;;;;;5056174;27;51428;-59
2021/10/08 12:31:13;;;;;;;;;8.00;8.00;;;;;;;;5076748;27;51276;-59
2021/10/08 12:33:40;;;;;;;;;8.33;5.33;;;;;;;;5072700;27;53565;-59
2021/10/08 12:36:12;;;;;;;;;8.67;8.00;;;;;;;;5051750;27;51988;-59
2021/10/08 12:38:49;;;;;;;;;6.00;6.00;;;;;;;;5050827;27;51107;-60
2021/10/08 12:41:35;;;;;;;;;4.33;4.33;;;;;;;;5076372;27;51222;-59
2021/10/08 12:44:04;;;;;;;;;11.00;8.67;;;;;;;;5074580;27;51136;-60
2021/10/08 12:46:34;;;;;;;;;8.00;8.00;;;;;;;;5077428;27;52251;-60
2021/10/08 12:49:00;;;;;;;;;8.67;7.33;;;;;;;;5072633;27;51177;-60
2021/10/08 12:51:25;;;;;;;;;13.00;12.00;;;;;;;;5076818;27;51159;-60
2021/10/08 12:54:09;;;;;;;;;8.33;8.33;;;;;;;;5076657;27;51341;-59
2021/10/08 12:56:35;;;;;;;;;9.00;9.00;;;;;;;;5076433;27;52029;-59
2021/10/08 12:59:00;;;;;;;;;15.00;15.00;;;;;;;;5072332;27;51408;-59
2021/10/08 13:01:25;;;;;;;;;8.33;7.33;;;;;;;;5071406;27;51185;-59
2021/10/08 13:03:50;;;;;;;;;17.67;16.67;;;;;;;;5076398;27;51434;-60
2021/10/08 13:06:18;;;;;;;;;12.67;12.67;;;;;;;;5075578;27;52018;-60
2021/10/08 13:09:03;;;;;;;;;13.67;12.33;;;;;;;;5077755;27;51113;-60
2021/10/08 13:11:35;;;;;;;;;10.00;10.00;;;;;;;;5076650;27;51192;-60
2021/10/08 13:14:01;;;;;;;;;15.67;15.67;;;;;;;;5073352;27;51396;-60
2021/10/08 13:16:27;;;;;;;;;7.67;6.33;;;;;;;;5076788;27;51635;-60
2021/10/08 13:18:52;;;;;;;;;13.00;12.67;;;;;;;;5073676;27;51213;-60
2021/10/08 13:21:19;;;;;;;;;7.67;7.00;;;;;;;;5076434;27;51263;-61
2021/10/08 13:23:45;;;;;;;;;17.00;17.00;;;;;;;;5076791;27;52149;-60
2021/10/08 13:26:10;;;;;;;;;9.33;9.33;;;;;;;;5075970;27;51126;-60
2021/10/08 13:28:35;;;;;;;;;8.00;7.00;;;;;;;;5073759;27;53005;-60
2021/10/08 13:31:02;;;;;;;;;7.00;6.67;;;;;;;;5076645;27;51267;-59
2021/10/08 13:33:27;;;;;;;;;9.67;9.67;;;;;;;;5072038;27;51154;-59
2021/10/08 13:35:53;;;;;;;;;6.67;6.67;;;;;;;;5074042;27;51283;-59
2021/10/08 13:38:19;;;;;;;;;9.33;9.00;;;;;;;;5074311;27;53357;-60
2021/10/08 13:40:45;;;;;;;;;9.33;8.00;;;;;;;;5075647;27;51141;-59
2021/10/08 13:43:10;;;;;;;;;10.67;9.33;;;;;;;;5074133;27;51252;-60
2021/10/08 13:45:36;;;;;;;;;8.00;7.67;;;;;;;;5074219;27;51925;-61
2021/10/08 13:48:01;;;;;;;;;5.67;5.67;;;;;;;;5072725;27;51302;-60
2021/10/08 13:50:26;;;;;;;;;8.67;8.33;;;;;;;;5076334;27;51254;-60
2021/10/08 13:52:51;;;;;;;;;7.00;7.00;;;;;;;;5074742;27;53328;-60
2021/10/08 13:55:17;;;;;;;;;9.33;9.00;;;;;;;;5076121;27;53570;-60
2021/10/08 13:57:42;;;;;;;;;6.00;6.00;;;;;;;;5073133;27;51244;-59
2021/10/08 14:00:08;;;;;;;;;6.00;6.00;;;;;;;;5075770;27;51312;-60
2021/10/08 14:02:38;;;;;;;;;7.67;7.67;;;;;;;;5054901;27;51155;-59
2021/10/08 14:12:28;;;;;;;;;9.00;8.67;;;;;;;;5072811;27;51081;-59
2021/10/08 14:14:53;;;;;;;;;6.00;6.00;;;;;;;;5071440;27;51097;-59
2021/10/08 14:17:19;;;;;;;;;6.67;6.00;;;;;;;;5076542;27;51265;-60
2021/10/08 14:19:44;;;;;;;;;8.00;7.00;;;;;;;;5073359;27;51192;-59
2021/10/08 14:22:09;;;;;;;;;8.33;8.33;;;;;;;;5069191;27;51052;-60
2021/10/08 14:24:34;;;;;;;;;6.00;6.00;;;;;;;;5076581;27;51096;-60
2021/10/08 14:27:00;;;;;;;;;6.67;6.00;;;;;;;;5072552;27;51224;-59
2021/10/08 14:29:25;;;;;;;;;7.00;6.67;;;;;;;;5074379;27;51160;-59
2021/10/08 14:31:50;;;;;;;;;8.00;8.00;;;;;;;;5073751;27;53305;-59
2021/10/08 14:34:15;;;;;;;;;5.67;5.67;;;;;;;;5070408;27;53037;-60
2021/10/08 14:36:41;;;;;;;;;6.00;5.00;;;;;;;;5073791;27;53382;-59
2021/10/08 14:39:06;;;;;;;;;5.33;5.33;;;;;;;;5072484;27;51252;-60
2021/10/08 14:41:31;;;;;;;;;6.67;6.67;;;;;;;;5076374;27;51320;-59